Time;durP1;ratioP1;P1;durP2;ratioP2;P2;SDS_P1;SDS_P2;PMS_P1;PMS_P2;Temp;Humidity;BMP_temperature;BMP_pressure;BME280_temperature;BME280_humidity;BME280_pressure;Samples;Min_cycle;Max_cycle;Signal;HPM_P1;HPM_P2
2021/06/10 00:01:25;;;;;;;1.88;0.60;;;18.20;60.10;;;;;;4678826;30;20408;-73
2021/06/10 00:03:52;;;;;;;1.20;0.50;;;18.20;60.30;;;;;;4675120;30;20659;-74
2021/06/10 00:06:20;;;;;;;1.60;0.55;;;18.10;60.50;;;;;;4675066;30;20132;-74
2021/06/10 00:08:47;;;;;;;0.80;0.40;;;18.10;60.70;;;;;;4698985;30;20050;-74
2021/06/10 00:11:14;;;;;;;1.33;0.47;;;18.10;60.70;;;;;;4708618;30;20135;-75
2021/06/10 00:13:41;;;;;;;1.15;0.50;;;18.10;60.80;;;;;;4688515;30;20088;-74
2021/06/10 00:16:08;;;;;;;1.25;0.43;;;18.00;60.80;;;;;;4685392;30;20108;-74
2021/06/10 00:18:35;;;;;;;0.85;0.45;;;18.00;60.80;;;;;;4674789;30;20042;-74
2021/06/10 00:21:02;;;;;;;1.08;0.50;;;18.00;60.90;;;;;;4699083;30;20082;-74
2021/06/10 00:23:29;;;;;;;0.50;0.30;;;17.90;61.00;;;;;;4686873;30;20060;-74
2021/06/10 00:25:56;;;;;;;1.08;0.40;;;17.90;61.10;;;;;;4682910;30;20056;-74
2021/06/10 00:28:23;;;;;;;1.15;0.50;;;17.90;61.10;;;;;;4691855;30;20042;-73
2021/06/10 00:30:50;;;;;;;1.23;0.43;;;17.90;61.30;;;;;;4699432;30;20590;-74
2021/06/10 00:33:18;;;;;;;1.10;0.60;;;17.90;61.40;;;;;;4690904;30;20411;-74
2021/06/10 00:35:45;;;;;;;1.08;0.50;;;17.90;61.50;;;;;;4676993;30;20068;-74
2021/06/10 00:38:11;;;;;;;1.27;0.50;;;17.80;61.60;;;;;;4693842;30;20072;-74
2021/06/10 00:40:38;;;;;;;1.98;0.50;;;17.80;61.70;;;;;;4667657;30;20550;-74
2021/06/10 00:43:06;;;;;;;2.40;0.55;;;17.80;61.80;;;;;;4690938;30;20053;-74
2021/06/10 00:45:33;;;;;;;2.88;0.75;;;17.70;61.90;;;;;;4669046;30;20045;-75
2021/06/10 00:48:00;;;;;;;1.85;0.80;;;17.70;62.00;;;;;;4692064;30;20127;-74
2021/06/10 00:50:38;;;;;;;1.25;0.50;;;17.70;62.10;;;;;;4702185;30;20507;-75
2021/06/10 00:53:06;;;;;;;1.40;0.60;;;17.70;62.20;;;;;;4699720;30;20061;-74
2021/06/10 00:55:34;;;;;;;2.33;0.70;;;17.60;62.30;;;;;;4700863;30;20107;-74
2021/06/10 00:58:03;;;;;;;1.40;0.50;;;17.60;62.40;;;;;;4683202;30;20061;-75
2021/06/10 01:00:30;;;;;;;2.80;0.55;;;17.60;62.50;;;;;;4688131;30;20133;-74
2021/06/10 01:02:57;;;;;;;0.68;0.40;;;17.60;62.70;;;;;;4694908;30;20037;-74
2021/06/10 01:05:24;;;;;;;2.17;0.45;;;17.50;62.70;;;;;;4692762;30;20384;-76
2021/06/10 01:08:12;;;;;;;1.85;0.50;;;17.50;62.80;;;;;;4687020;30;20050;-75
2021/06/10 01:11:01;;;;;;;1.30;0.60;;;17.50;62.90;;;;;;4696486;30;20390;-74
2021/06/10 01:13:43;;;;;;;1.30;0.40;;;17.40;62.90;;;;;;4689510;30;20054;-74
2021/06/10 01:16:12;;;;;;;1.08;0.55;;;17.40;63.10;;;;;;4701432;30;20053;-75
2021/06/10 01:18:41;;;;;;;0.68;0.40;;;17.30;63.20;;;;;;4685271;30;20084;-75
2021/06/10 01:21:08;;;;;;;4.78;0.63;;;17.30;63.30;;;;;;4692204;30;20521;-74
2021/06/10 01:24:13;;;;;;;1.85;0.60;;;17.30;63.40;;;;;;4698261;30;21781;-74
2021/06/10 01:26:58;;;;;;;0.98;0.60;;;17.30;63.60;;;;;;4697633;30;20046;-73
2021/06/10 01:29:26;;;;;;;1.10;0.60;;;17.30;63.70;;;;;;4685351;30;20398;-74
2021/06/10 01:31:54;;;;;;;0.95;0.50;;;17.20;63.70;;;;;;4694951;30;20104;-74
2021/06/10 01:34:23;;;;;;;1.08;0.50;;;17.20;63.70;;;;;;4683842;30;20682;-74
2021/06/10 01:36:52;;;;;;;1.15;0.50;;;17.20;63.70;;;;;;4694173;30;20049;-74
2021/06/10 01:39:26;;;;;;;1.65;0.50;;;17.10;63.70;;;;;;4704357;30;20042;-74
2021/06/10 01:41:55;;;;;;;1.27;0.57;;;17.10;63.80;;;;;;4694196;30;20582;-74
2021/06/10 01:44:25;;;;;;;2.17;0.43;;;17.10;63.90;;;;;;4701518;30;20056;-74
2021/06/10 01:46:53;;;;;;;1.13;0.40;;;17.10;64.00;;;;;;4683779;30;20104;-74
2021/06/10 01:49:20;;;;;;;0.75;0.50;;;17.00;64.10;;;;;;4701232;30;20403;-74
2021/06/10 01:51:49;;;;;;;1.20;0.60;;;17.00;64.20;;;;;;4709658;30;20433;-74
2021/06/10 01:54:18;;;;;;;0.93;0.40;;;17.00;64.30;;;;;;4683395;30;20172;-74
2021/06/10 01:56:45;;;;;;;1.00;0.50;;;17.00;64.40;;;;;;4700792;30;20091;-74
2021/06/10 01:59:14;;;;;;;1.30;0.47;;;17.00;64.50;;;;;;4698102;30;20046;-74
2021/06/10 02:01:41;;;;;;;2.05;0.50;;;16.90;64.60;;;;;;4691855;30;20088;-74
2021/06/10 02:04:10;;;;;;;1.80;0.40;;;16.90;64.70;;;;;;4677023;30;20130;-74
2021/06/10 02:06:43;;;;;;;0.82;0.50;;;16.90;64.70;;;;;;4704622;30;20451;-74
2021/06/10 02:09:11;;;;;;;1.30;0.60;;;16.90;65.40;;;;;;4686395;30;20376;-74
2021/06/10 02:11:39;;;;;;;2.35;0.75;;;16.80;64.80;;;;;;4697953;30;20069;-74
2021/06/10 02:14:08;;;;;;;1.10;0.47;;;16.80;64.90;;;;;;4697937;30;20108;-74
2021/06/10 02:16:40;;;;;;;1.20;0.50;;;16.80;65.00;;;;;;4679956;30;20483;-74
2021/06/10 02:19:08;;;;;;;0.95;0.50;;;16.70;65.00;;;;;;4681520;30;20329;-73
2021/06/10 02:21:35;;;;;;;2.70;0.57;;;16.70;65.80;;;;;;4701244;30;20072;-74
2021/06/10 02:24:02;;;;;;;1.17;0.60;;;16.70;65.20;;;;;;4696769;30;20041;-74
2021/06/10 02:26:30;;;;;;;1.27;0.40;;;16.60;65.20;;;;;;4684591;30;20069;-74
2021/06/10 02:28:57;;;;;;;1.83;0.57;;;16.60;65.30;;;;;;4696394;30;20506;-74
2021/06/10 02:31:24;;;;;;;2.38;0.50;;;16.60;65.40;;;;;;4699239;30;20426;-74
2021/06/10 02:33:51;;;;;;;1.00;0.40;;;16.60;65.50;;;;;;4696539;30;20053;-74
2021/06/10 02:36:19;;;;;;;1.65;0.60;;;16.60;65.50;;;;;;4701899;30;20045;-74
2021/06/10 02:38:52;;;;;;;1.08;0.52;;;16.50;65.50;;;;;;4681837;30;20065;-74
2021/06/10 02:41:26;;;;;;;1.58;0.50;;;16.50;65.50;;;;;;4702392;30;20053;-74
2021/06/10 02:43:55;;;;;;;1.40;0.50;;;16.50;65.60;;;;;;4701324;30;20048;-74
2021/06/10 02:46:23;;;;;;;1.27;0.60;;;16.50;65.70;;;;;;4671842;30;20053;-74
2021/06/10 02:48:52;;;;;;;1.83;0.52;;;16.40;65.80;;;;;;4689397;30;20049;-74
2021/06/10 02:51:20;;;;;;;2.95;0.70;;;16.40;65.90;;;;;;4685247;30;20053;-74
2021/06/10 02:53:50;;;;;;;1.42;0.60;;;16.40;66.10;;;;;;4698560;30;20061;-74
2021/06/10 02:56:19;;;;;;;1.48;0.60;;;16.40;66.20;;;;;;4689071;30;20078;-74
2021/06/10 02:58:48;;;;;;;1.48;0.63;;;16.30;66.20;;;;;;4684570;30;20143;-73
2021/06/10 03:01:16;;;;;;;0.95;0.40;;;16.30;66.30;;;;;;4674625;30;20116;-74
2021/06/10 03:03:43;;;;;;;1.30;0.50;;;16.30;66.30;;;;;;4698659;30;20046;-74
2021/06/10 03:06:11;;;;;;;1.08;0.50;;;16.30;66.40;;;;;;4684915;30;20147;-74
2021/06/10 03:08:39;;;;;;;1.48;0.60;;;16.30;66.40;;;;;;4677214;30;20046;-74
2021/06/10 03:11:08;;;;;;;1.05;0.55;;;16.20;66.50;;;;;;4701186;30;20463;-74
2021/06/10 03:13:37;;;;;;;1.00;0.40;;;16.20;66.50;;;;;;4687475;30;20575;-74
2021/06/10 03:16:05;;;;;;;0.60;0.38;;;16.10;66.50;;;;;;4689698;30;20504;-74
2021/06/10 03:18:33;;;;;;;1.33;0.55;;;16.10;66.60;;;;;;4700853;30;20204;-73
2021/06/10 03:21:01;;;;;;;1.25;0.50;;;16.10;66.80;;;;;;4684225;30;20062;-74
2021/06/10 03:23:28;;;;;;;1.55;0.50;;;16.10;66.80;;;;;;4683219;30;20050;-74
2021/06/10 03:25:58;;;;;;;1.08;0.60;;;16.10;66.90;;;;;;4681108;30;20060;-74
2021/06/10 03:28:27;;;;;;;1.33;0.50;;;16.10;67.00;;;;;;4700183;30;20050;-74
2021/06/10 03:30:55;;;;;;;1.27;0.55;;;16.00;67.10;;;;;;4699979;30;20462;-73
2021/06/10 03:33:23;;;;;;;1.25;0.40;;;16.00;67.80;;;;;;4702355;30;20061;-74
2021/06/10 03:35:51;;;;;;;1.85;0.50;;;16.00;67.30;;;;;;4685360;30;20049;-73
2021/06/10 03:38:19;;;;;;;2.83;0.65;;;16.00;67.40;;;;;;4670305;30;20084;-73
2021/06/10 03:40:48;;;;;;;1.10;0.50;;;16.00;67.50;;;;;;4683338;30;20057;-74
2021/06/10 03:43:16;;;;;;;2.45;0.88;;;16.00;67.60;;;;;;4677537;30;20136;-73
2021/06/10 03:45:43;;;;;;;2.03;0.70;;;16.00;67.80;;;;;;4696468;30;20052;-73
2021/06/10 03:48:10;;;;;;;1.98;0.90;;;15.90;67.80;;;;;;4690575;30;20049;-74
2021/06/10 03:50:38;;;;;;;1.17;0.55;;;15.90;67.80;;;;;;4695921;30;20527;-73
2021/06/10 03:53:06;;;;;;;1.98;0.60;;;15.90;67.90;;;;;;4672237;30;20057;-74
2021/06/10 03:55:33;;;;;;;1.00;0.60;;;15.90;67.90;;;;;;4694251;30;20115;-74
2021/06/10 03:58:00;;;;;;;1.50;0.60;;;16.00;68.30;;;;;;4699214;30;20121;-74
2021/06/10 04:00:28;;;;;;;1.58;0.80;;;15.90;68.00;;;;;;4698343;30;20053;-73
2021/06/10 04:02:59;;;;;;;2.00;0.85;;;16.00;68.20;;;;;;4678137;30;20045;-74
2021/06/10 04:05:30;;;;;;;1.00;0.50;;;16.00;68.30;;;;;;4683132;30;20440;-74
2021/06/10 04:07:58;;;;;;;1.17;0.55;;;16.00;69.00;;;;;;4669463;30;20058;-74
2021/06/10 04:10:26;;;;;;;0.95;0.60;;;16.00;68.40;;;;;;4677267;30;20053;-73
2021/06/10 04:12:52;;;;;;;1.45;0.40;;;16.00;68.50;;;;;;4699945;30;20097;-74
2021/06/10 04:15:20;;;;;;;1.65;0.77;;;16.00;68.50;;;;;;4702876;30;20134;-74
2021/06/10 04:17:47;;;;;;;1.75;0.60;;;16.00;68.60;;;;;;4686731;30;20132;-74
2021/06/10 04:20:15;;;;;;;1.40;0.52;;;16.10;68.70;;;;;;4682708;30;20227;-73
2021/06/10 04:22:42;;;;;;;1.90;0.70;;;16.10;68.70;;;;;;4680474;30;20050;-74
2021/06/10 04:25:10;;;;;;;0.95;0.50;;;16.10;68.70;;;;;;4669347;30;20092;-74
2021/06/10 04:27:37;;;;;;;0.82;0.40;;;16.10;68.70;;;;;;4692376;30;20491;-73
2021/06/10 04:30:07;;;;;;;1.05;0.45;;;16.10;68.80;;;;;;4694152;30;20072;-74
2021/06/10 04:32:34;;;;;;;1.38;0.60;;;16.20;68.90;;;;;;4669529;30;20065;-74
2021/06/10 04:35:04;;;;;;;0.90;0.50;;;16.20;68.90;;;;;;4678424;30;20392;-73
2021/06/10 04:37:31;;;;;;;1.30;0.68;;;16.20;68.90;;;;;;4700316;30;20115;-73
2021/06/10 04:39:59;;;;;;;0.90;0.45;;;16.20;68.90;;;;;;4690509;30;20503;-75
2021/06/10 04:42:25;;;;;;;1.23;0.60;;;16.30;68.90;;;;;;4693496;30;20068;-74
2021/06/10 04:44:52;;;;;;;1.30;0.60;;;16.30;68.90;;;;;;4686649;30;20500;-74
2021/06/10 04:47:19;;;;;;;1.30;0.60;;;16.40;68.90;;;;;;4683159;30;20096;-74
2021/06/10 04:49:46;;;;;;;1.75;0.60;;;16.40;68.80;;;;;;4699313;30;20221;-74
2021/06/10 04:52:14;;;;;;;1.42;0.70;;;16.50;68.80;;;;;;4701049;30;20052;-73
2021/06/10 04:54:42;;;;;;;1.55;0.65;;;16.60;68.70;;;;;;4690495;30;20081;-74
2021/06/10 04:57:09;;;;;;;1.80;0.77;;;16.60;69.20;;;;;;4685492;30;20048;-74
2021/06/10 04:59:36;;;;;;;1.75;0.70;;;16.70;68.60;;;;;;4699182;30;20057;-74
2021/06/10 05:02:04;;;;;;;2.05;0.70;;;16.80;68.60;;;;;;4666669;30;20133;-74
2021/06/10 05:04:32;;;;;;;1.77;0.75;;;16.80;68.60;;;;;;4683423;30;20077;-74
2021/06/10 05:06:59;;;;;;;2.47;0.95;;;17.00;68.50;;;;;;4689843;30;20116;-74
2021/06/10 05:09:26;;;;;;;3.00;0.95;;;17.00;68.50;;;;;;4683315;30;20117;-74
2021/06/10 05:11:53;;;;;;;3.22;1.80;;;17.10;68.50;;;;;;4684599;30;21820;-74
2021/06/10 05:14:20;;;;;;;2.65;1.27;;;17.20;68.30;;;;;;4685756;30;20079;-74
2021/06/10 05:16:49;;;;;;;3.15;1.55;;;17.30;68.00;;;;;;4699670;30;20037;-74
2021/06/10 05:19:17;;;;;;;3.17;1.60;;;17.50;67.90;;;;;;4698790;30;20107;-74
2021/06/10 05:21:46;;;;;;;2.72;1.30;;;17.60;67.70;;;;;;4671264;30;20115;-74
2021/06/10 05:24:15;;;;;;;3.53;1.75;;;17.70;67.60;;;;;;4676937;30;20107;-74
2021/06/10 05:26:42;;;;;;;3.13;2.15;;;17.80;67.30;;;;;;4682399;30;20455;-74
2021/06/10 05:29:11;;;;;;;3.25;1.67;;;17.90;67.10;;;;;;4694118;30;20056;-74
2021/06/10 05:31:38;;;;;;;4.70;2.13;;;18.00;66.80;;;;;;4686919;30;20065;-74
2021/06/10 05:34:08;;;;;;;2.67;1.60;;;18.10;66.60;;;;;;4699549;30;20053;-74
2021/06/10 05:36:35;;;;;;;2.92;1.63;;;18.30;66.40;;;;;;4700856;30;20554;-74
2021/06/10 05:39:03;;;;;;;3.67;1.95;;;18.40;66.10;;;;;;4689571;30;20130;-74
2021/06/10 05:41:30;;;;;;;4.60;2.72;;;18.50;65.90;;;;;;4706698;30;20054;-74
2021/06/10 05:43:58;;;;;;;3.30;1.90;;;18.60;65.70;;;;;;4687187;30;20069;-74
2021/06/10 05:46:27;;;;;;;3.72;2.15;;;18.80;65.50;;;;;;4688284;30;20045;-75
2021/06/10 05:48:57;;;;;;;;;;;18.90;65.40;;;;;;4694870;30;20076;-75
2021/06/10 05:51:24;;;;;;;3.00;1.92;;;18.90;65.10;;;;;;4692018;30;19930;-74
2021/06/10 05:53:51;;;;;;;3.28;2.33;;;19.00;65.10;;;;;;4706827;30;20123;-74
2021/06/10 05:56:18;;;;;;;4.55;2.38;;;19.10;64.90;;;;;;4699769;30;20565;-74
2021/06/10 05:58:45;;;;;;;4.32;2.45;;;19.30;64.70;;;;;;4689416;30;20479;-74
2021/06/10 06:01:12;;;;;;;4.35;2.72;;;19.40;64.60;;;;;;4670971;30;20116;-75
2021/06/10 06:03:40;;;;;;;4.57;2.75;;;19.50;64.40;;;;;;4673784;30;20473;-74
2021/06/10 06:06:07;;;;;;;3.33;1.98;;;19.50;64.20;;;;;;4669469;30;20046;-75
2021/06/10 06:08:34;;;;;;;3.22;1.80;;;19.60;64.10;;;;;;4707478;30;20455;-74
2021/06/10 06:11:01;;;;;;;3.53;1.67;;;19.70;64.00;;;;;;4684233;30;20052;-72
2021/06/10 06:13:45;;;;;;;4.32;2.60;;;19.80;63.90;;;;;;4706919;30;20061;-72
2021/06/10 06:16:18;;;;;;;4.20;3.05;;;19.90;63.80;;;;;;4684399;30;20648;-72
2021/06/10 06:18:49;;;;;;;3.67;2.20;;;20.00;63.60;;;;;;4703122;30;20068;-72
2021/06/10 06:21:17;;;;;;;5.30;2.97;;;20.10;63.50;;;;;;4682765;30;20049;-74
2021/06/10 06:23:44;;;;;;;5.53;3.00;;;20.20;63.30;;;;;;4674893;30;20136;-72
2021/06/10 06:26:11;;;;;;;4.97;3.05;;;20.20;63.20;;;;;;4686125;30;20513;-73
2021/06/10 06:28:42;;;;;;;4.10;2.65;;;20.30;63.10;;;;;;4697984;30;20037;-72
2021/06/10 06:31:09;;;;;;;5.18;2.75;;;20.40;63.00;;;;;;4684966;30;20064;-72
2021/06/10 06:33:37;;;;;;;6.20;3.75;;;20.50;62.90;;;;;;4692250;30;20046;-73
2021/06/10 06:36:05;;;;;;;4.18;2.80;;;20.50;62.70;;;;;;4698013;30;20455;-72
2021/06/10 06:38:32;;;;;;;3.80;2.42;;;20.60;62.60;;;;;;4682398;30;20127;-72
2021/06/10 06:40:59;;;;;;;5.15;2.85;;;20.70;62.50;;;;;;4703057;30;20076;-72
2021/06/10 06:43:30;;;;;;;4.00;1.98;;;20.80;62.30;;;;;;4686614;30;20046;-72
2021/06/10 06:46:03;;;;;;;3.70;2.47;;;20.90;62.20;;;;;;4677573;30;20514;-73
2021/06/10 06:48:30;;;;;;;3.95;2.70;;;20.90;62.00;;;;;;4683112;30;20050;-72
2021/06/10 06:50:58;;;;;;;4.28;2.65;;;21.00;61.80;;;;;;4689238;30;20235;-72
2021/06/10 06:53:28;;;;;;;4.45;2.55;;;21.10;61.80;;;;;;4696546;30;20053;-72
2021/06/10 06:56:11;;;;;;;5.18;2.65;;;21.20;61.70;;;;;;4700033;30;20049;-73
2021/06/10 06:58:43;;;;;;;3.65;2.47;;;21.30;61.50;;;;;;4706646;30;20152;-73
2021/06/10 07:01:10;;;;;;;4.03;2.95;;;21.30;61.40;;;;;;4669866;30;20419;-73
2021/06/10 07:03:37;;;;;;;4.55;3.10;;;21.40;61.30;;;;;;4671064;30;20093;-73
2021/06/10 07:06:04;;;;;;;4.72;3.10;;;21.50;61.10;;;;;;4685565;30;20070;-73
2021/06/10 07:08:31;;;;;;;5.40;3.15;;;21.50;61.00;;;;;;4682537;30;20053;-73
2021/06/10 07:11:02;;;;;;;4.63;2.42;;;21.50;61.00;;;;;;4688081;30;20118;-73
2021/06/10 07:13:29;;;;;;;3.63;2.35;;;21.60;60.90;;;;;;4701004;30;20057;-73
2021/06/10 07:15:56;;;;;;;4.40;2.80;;;21.70;60.80;;;;;;4693948;30;20069;-73
2021/06/10 07:18:24;;;;;;;3.42;1.73;;;21.80;60.70;;;;;;4692343;30;20080;-74
2021/06/10 07:20:51;;;;;;;4.68;3.10;;;21.90;60.50;;;;;;4684794;30;20045;-72
2021/06/10 07:23:18;;;;;;;4.57;3.40;;;22.00;60.40;;;;;;4706433;30;20052;-73
2021/06/10 07:25:45;;;;;;;4.22;2.47;;;22.10;60.30;;;;;;4685237;30;20055;-74
2021/06/10 07:28:12;;;;;;;7.20;3.72;;;22.10;60.30;;;;;;4678296;30;20053;-72
2021/06/10 07:30:39;;;;;;;6.68;3.58;;;22.20;60.70;;;;;;4678489;30;20935;-74
2021/06/10 07:33:07;;;;;;;5.57;3.55;;;22.20;60.00;;;;;;4694876;30;20046;-73
2021/06/10 07:35:35;;;;;;;4.18;2.58;;;22.30;59.90;;;;;;4701224;30;20045;-74
2021/06/10 07:38:04;;;;;;;3.58;2.28;;;22.30;59.50;;;;;;4706659;30;20124;-74
2021/06/10 07:40:31;;;;;;;3.97;2.10;;;22.50;59.30;;;;;;4700864;30;20044;-73
2021/06/10 07:42:59;;;;;;;3.90;2.20;;;22.50;58.60;;;;;;4694200;30;20121;-74
2021/06/10 07:45:28;;;;;;;2.35;1.45;;;22.60;58.20;;;;;;4696477;30;20049;-73
2021/06/10 07:47:55;;;;;;;3.05;1.52;;;22.70;57.70;;;;;;4688255;30;20042;-75
2021/06/10 07:50:24;;;;;;;3.22;1.42;;;22.70;56.60;;;;;;4678030;30;20483;-72
2021/06/10 07:52:51;;;;;;;1.73;0.90;;;22.80;54.70;;;;;;4702600;30;20413;-73
2021/06/10 07:55:20;;;;;;;1.90;0.88;;;22.80;53.90;;;;;;4695635;30;20056;-72
2021/06/10 07:57:48;;;;;;;1.80;0.80;;;22.90;53.50;;;;;;4666786;30;20050;-72
2021/06/10 08:00:17;;;;;;;2.70;0.80;;;23.00;53.40;;;;;;4682784;30;20053;-72
2021/06/10 08:02:45;;;;;;;1.38;0.70;;;23.10;53.30;;;;;;4692372;30;20254;-73
2021/06/10 08:05:13;;;;;;;2.30;0.77;;;23.20;53.00;;;;;;4699380;30;20057;-73
2021/06/10 08:07:45;;;;;;;2.75;1.30;;;23.20;52.50;;;;;;4702664;30;20112;-74
2021/06/10 08:10:15;;;;;;;1.90;0.90;;;23.30;51.50;;;;;;4683898;30;20062;-74
2021/06/10 08:12:46;;;;;;;1.98;1.02;;;23.30;51.40;;;;;;4688212;30;20669;-73
2021/06/10 08:15:13;;;;;;;2.33;1.08;;;23.40;51.10;;;;;;4678340;30;20084;-74
2021/06/10 08:17:41;;;;;;;1.10;0.55;;;23.40;50.00;;;;;;4692956;30;20116;-75
2021/06/10 08:20:09;;;;;;;2.55;1.00;;;23.50;50.30;;;;;;4698979;30;20053;-75
2021/06/10 08:22:36;;;;;;;1.30;0.80;;;23.60;50.00;;;;;;4698967;30;20531;-75
2021/06/10 08:25:06;;;;;;;2.35;1.15;;;23.70;49.80;;;;;;4680971;30;20380;-75
2021/06/10 08:27:34;;;;;;;2.33;0.90;;;23.80;49.40;;;;;;4689713;30;20049;-75
2021/06/10 08:30:01;;;;;;;2.80;1.40;;;23.90;49.30;;;;;;4693862;30;20041;-75
2021/06/10 08:32:29;;;;;;;3.42;1.70;;;23.90;48.90;;;;;;4701469;30;20503;-75
2021/06/10 08:34:56;;;;;;;2.95;1.90;;;24.00;48.90;;;;;;4670629;30;20065;-75
2021/06/10 08:37:23;;;;;;;3.97;1.80;;;24.00;48.80;;;;;;4656367;30;20061;-75
2021/06/10 08:39:50;;;;;;;2.38;1.45;;;24.10;48.80;;;;;;4704153;30;20065;-75
2021/06/10 08:42:18;;;;;;;2.75;1.38;;;24.20;49.60;;;;;;4666829;30;20076;-75
2021/06/10 08:44:46;;;;;;;3.50;2.38;;;24.30;49.00;;;;;;4697473;30;20041;-75
2021/06/10 08:47:15;;;;;;;3.05;1.63;;;24.40;48.40;;;;;;4671193;30;20111;-76
2021/06/10 08:49:46;;;;;;;2.53;1.38;;;24.40;48.40;;;;;;4696890;30;20416;-75
2021/06/10 08:52:13;;;;;;;3.40;1.98;;;24.40;48.60;;;;;;4693704;30;20044;-75
2021/06/10 08:54:40;;;;;;;4.45;2.50;;;24.50;48.20;;;;;;4695902;30;20053;-75
2021/06/10 08:57:10;;;;;;;2.38;1.33;;;24.50;48.20;;;;;;4699564;30;20423;-76
2021/06/10 08:59:37;;;;;;;3.70;1.20;;;24.50;48.40;;;;;;4702488;30;20058;-76
2021/06/10 09:02:08;;;;;;;3.15;1.30;;;24.60;48.60;;;;;;4683853;30;20161;-76
2021/06/10 09:04:36;;;;;;;4.22;1.80;;;24.80;48.60;;;;;;4686059;30;20468;-76
2021/06/10 09:07:04;;;;;;;2.20;1.35;;;24.90;48.40;;;;;;4671004;30;20058;-76
2021/06/10 09:09:48;;;;;;;2.47;1.60;;;25.00;48.40;;;;;;4677607;30;20493;-75
2021/06/10 09:12:20;;;;;;;4.30;2.20;;;25.10;48.10;;;;;;4692784;30;20053;-75
2021/06/10 09:15:02;;;;;;;2.33;1.48;;;25.10;48.10;;;;;;4690254;30;20052;-76
2021/06/10 09:17:34;;;;;;;3.63;1.92;;;25.20;48.20;;;;;;4684303;30;20060;-76
2021/06/10 09:20:27;;;;;;;2.60;1.40;;;25.30;47.90;;;;;;4679065;30;20046;-75
2021/06/10 09:23:16;;;;;;;2.10;1.27;;;25.40;47.90;;;;;;4692810;30;20060;-76
2021/06/10 09:25:47;;;;;;;3.45;1.70;;;25.50;47.80;;;;;;4698358;30;20053;-75
2021/06/10 09:28:15;;;;;;;2.88;1.60;;;25.50;47.60;;;;;;4696518;30;20148;-77
2021/06/10 09:30:51;;;;;;;3.53;1.63;;;25.60;47.50;;;;;;4702291;30;20058;-75
2021/06/10 09:33:24;;;;;;;1.85;1.20;;;25.60;47.40;;;;;;4692388;30;20093;-76
2021/06/10 09:35:54;;;;;;;2.38;1.50;;;25.70;47.30;;;;;;4687366;30;20389;-76
2021/06/10 09:38:24;;;;;;;3.45;2.22;;;25.80;47.00;;;;;;4669404;30;20053;-76
2021/06/10 09:41:01;;;;;;;3.08;1.92;;;25.70;46.40;;;;;;4674727;30;20053;-76
2021/06/10 09:43:46;;;;;;;3.00;1.75;;;25.70;46.60;;;;;;4702989;30;20053;-77
2021/06/10 09:46:14;;;;;;;2.78;1.45;;;25.80;46.40;;;;;;4703913;30;20053;-77
2021/06/10 09:48:41;;;;;;;2.35;1.38;;;25.80;46.50;;;;;;4680593;30;20471;-77
2021/06/10 09:51:21;;;;;;;2.72;1.63;;;25.80;46.50;;;;;;4673881;30;20499;-77
2021/06/10 09:53:48;;;;;;;2.45;1.65;;;26.00;46.40;;;;;;4702430;30;20056;-77
2021/06/10 09:56:18;;;;;;;4.60;1.80;;;26.00;46.20;;;;;;4664718;30;20049;-75
2021/06/10 09:58:53;;;;;;;3.05;1.60;;;26.00;46.00;;;;;;4700375;30;20064;-76
2021/06/10 10:01:24;;;;;;;2.80;1.83;;;26.00;46.30;;;;;;4675122;30;20077;-75
2021/06/10 10:03:53;;;;;;;2.63;1.70;;;26.00;46.00;;;;;;4697809;30;20456;-78
2021/06/10 10:06:23;;;;;;;2.40;1.70;;;26.00;46.10;;;;;;4674315;30;20711;-75
2021/06/10 10:08:56;;;;;;;3.08;1.63;;;26.10;46.00;;;;;;4686599;30;20057;-75
2021/06/10 10:11:26;;;;;;;2.13;1.25;;;26.10;46.00;;;;;;4697178;30;20104;-75
2021/06/10 10:13:57;;;;;;;2.15;1.13;;;26.10;46.20;;;;;;4696412;30;20077;-76
2021/06/10 10:16:31;;;;;;;1.88;1.08;;;26.10;46.20;;;;;;4705424;30;20046;-78
2021/06/10 10:18:59;;;;;;;1.92;1.13;;;26.20;46.20;;;;;;4685746;30;20073;-78
2021/06/10 10:21:28;;;;;;;1.90;1.02;;;26.30;46.20;;;;;;4686958;30;20064;-78
2021/06/10 10:24:04;;;;;;;2.38;1.65;;;26.30;46.70;;;;;;4708972;30;20451;-79
2021/06/10 10:26:32;;;;;;;2.60;1.55;;;26.30;46.00;;;;;;4698214;30;20495;-76
2021/06/10 10:29:02;;;;;;;2.40;1.35;;;26.30;46.10;;;;;;4687079;30;20050;-77
2021/06/10 10:31:30;;;;;;;2.53;1.20;;;26.30;45.90;;;;;;4664936;30;20065;-77
2021/06/10 10:33:57;;;;;;;4.18;2.22;;;26.30;46.00;;;;;;4696132;30;20064;-78
2021/06/10 10:36:31;;;;;;;3.03;1.45;;;26.30;45.60;;;;;;4681384;30;20109;-78
2021/06/10 10:39:02;;;;;;;2.50;1.50;;;26.40;45.80;;;;;;4702151;30;20042;-78
2021/06/10 10:41:32;;;;;;;3.05;1.58;;;26.50;45.90;;;;;;4673818;30;20050;-77
2021/06/10 10:44:20;;;;;;;2.25;1.00;;;26.50;45.70;;;;;;4679645;30;20147;-75
2021/06/10 10:47:09;;;;;;;4.15;1.88;;;26.60;45.70;;;;;;4697733;30;20051;-74
2021/06/10 10:49:45;;;;;;;2.53;1.63;;;26.60;45.50;;;;;;4712651;30;20064;-75
2021/06/10 10:52:24;;;;;;;2.75;1.88;;;26.60;45.50;;;;;;4676040;30;20491;-75
2021/06/10 10:54:52;;;;;;;2.45;1.67;;;26.60;45.10;;;;;;4690148;30;20049;-75
2021/06/10 10:57:33;;;;;;;2.33;1.42;;;26.50;44.90;;;;;;4710224;30;20096;-75
2021/06/10 11:00:03;;;;;;;;;;;26.50;44.60;;;;;;4684837;30;20050;-75
2021/06/10 11:02:30;;;;;;;2.97;1.15;;;26.50;44.80;;;;;;4703690;30;19965;-74
2021/06/10 11:05:05;;;;;;;2.25;0.93;;;26.50;44.70;;;;;;4683964;30;20050;-75
2021/06/10 11:07:33;;;;;;;2.17;0.95;;;26.70;44.50;;;;;;4685430;30;20153;-77
2021/06/10 11:10:07;;;;;;;1.60;0.80;;;26.70;44.40;;;;;;4688553;30;20472;-76
2021/06/10 11:12:49;;;;;;;2.25;0.90;;;26.80;44.30;;;;;;4671900;30;20057;-75
2021/06/10 11:15:26;;;;;;;2.28;1.30;;;27.00;44.20;;;;;;4684777;30;20056;-77
2021/06/10 11:18:02;;;;;;;3.92;1.35;;;27.10;43.30;;;;;;4676385;30;20097;-74
2021/06/10 11:20:42;;;;;;;1.92;0.90;;;27.10;43.20;;;;;;4670815;30;20053;-76
2021/06/10 11:23:14;;;;;;;1.60;0.95;;;27.10;42.90;;;;;;4701252;30;20058;-74
2021/06/10 11:25:44;;;;;;;1.73;1.05;;;27.20;43.10;;;;;;4686823;30;20050;-75
2021/06/10 11:28:14;;;;;;;1.35;0.85;;;27.20;42.60;;;;;;4689542;30;20081;-73
2021/06/10 11:30:41;;;;;;;2.08;1.00;;;27.30;42.70;;;;;;4678318;30;20046;-73
2021/06/10 11:33:17;;;;;;;2.80;1.13;;;27.50;42.60;;;;;;4697728;30;20464;-74
2021/06/10 11:35:53;;;;;;;1.90;1.00;;;27.60;42.40;;;;;;4681364;30;20150;-74
2021/06/10 11:38:28;;;;;;;1.73;0.88;;;27.80;42.40;;;;;;4686304;30;20081;-75
2021/06/10 11:41:04;;;;;;;1.52;1.00;;;27.80;42.10;;;;;;4694606;30;20140;-75
2021/06/10 11:43:42;;;;;;;1.33;0.70;;;27.90;41.80;;;;;;4706133;30;20077;-74
2021/06/10 11:46:12;;;;;;;1.35;0.80;;;28.00;41.90;;;;;;4687848;30;20064;-74
2021/06/10 11:48:46;;;;;;;1.67;0.70;;;28.20;41.70;;;;;;4696718;30;20408;-75
2021/06/10 11:51:30;;;;;;;1.95;0.90;;;28.40;41.30;;;;;;4694313;30;20080;-74
2021/06/10 11:54:14;;;;;;;1.00;0.60;;;28.60;41.20;;;;;;4678573;30;20442;-74
2021/06/10 11:56:43;;;;;;;1.20;0.70;;;28.80;40.90;;;;;;4682627;30;20395;-73
2021/06/10 11:59:19;;;;;;;1.25;0.52;;;29.10;40.30;;;;;;4688564;30;20450;-74
2021/06/10 12:01:58;;;;;;;1.00;0.63;;;29.50;39.90;;;;;;4688746;30;20046;-75
2021/06/10 12:04:27;;;;;;;1.52;0.57;;;29.80;39.30;;;;;;4684297;30;20557;-75
2021/06/10 12:07:08;;;;;;;1.50;0.63;;;30.10;38.60;;;;;;4699403;30;20099;-75
2021/06/10 12:09:56;;;;;;;1.25;0.60;;;30.50;38.60;;;;;;4691011;30;20053;-76
2021/06/10 12:12:45;;;;;;;0.93;0.40;;;30.80;38.00;;;;;;4695802;30;20112;-75
2021/06/10 12:15:18;;;;;;;1.00;0.52;;;31.20;37.70;;;;;;4697423;30;20667;-75
2021/06/10 12:17:49;;;;;;;1.95;0.50;;;31.40;37.10;;;;;;4688785;30;20153;-75
2021/06/10 12:20:22;;;;;;;1.58;0.50;;;31.60;36.60;;;;;;4679895;30;20151;-76
2021/06/10 12:23:00;;;;;;;1.65;0.60;;;31.80;36.40;;;;;;4685296;30;20042;-76
2021/06/10 12:25:31;;;;;;;1.52;0.60;;;32.00;35.70;;;;;;4701387;30;20057;-75
2021/06/10 12:28:00;;;;;;;1.20;0.60;;;32.20;35.80;;;;;;4695711;30;20061;-74
2021/06/10 12:30:34;;;;;;;3.53;0.60;;;32.50;35.80;;;;;;4696696;30;20405;-75
2021/06/10 12:33:20;;;;;;;0.60;0.40;;;32.70;35.50;;;;;;4683516;30;20069;-75
2021/06/10 12:35:50;;;;;;;0.88;0.40;;;32.90;35.30;;;;;;4695372;30;20099;-74
2021/06/10 12:38:25;;;;;;;1.02;0.40;;;33.10;35.20;;;;;;4680030;30;20077;-73
2021/06/10 12:40:52;;;;;;;1.08;0.60;;;33.50;35.10;;;;;;4696863;30;20465;-74
2021/06/10 12:43:23;;;;;;;1.45;0.80;;;33.70;34.30;;;;;;4694275;30;20108;-73
2021/06/10 12:46:05;;;;;;;1.33;0.63;;;33.50;33.90;;;;;;4697459;30;20053;-75
2021/06/10 12:48:59;;;;;;;1.90;0.90;;;33.60;34.30;;;;;;4705240;30;20050;-75
2021/06/10 12:51:31;;;;;;;1.38;0.80;;;33.80;34.00;;;;;;4675453;30;20057;-74
2021/06/10 12:54:04;;;;;;;1.15;0.60;;;33.90;33.80;;;;;;4694929;30;20562;-74
2021/06/10 12:56:36;;;;;;;1.77;0.70;;;33.80;33.20;;;;;;4697323;30;20058;-77
2021/06/10 12:59:04;;;;;;;;;;;33.90;33.00;;;;;;4697224;30;20053;-76
2021/06/10 13:01:31;;;;;;;1.48;0.60;;;33.70;32.30;;;;;;4695734;30;19994;-77
2021/06/10 13:03:58;;;;;;;1.25;0.65;;;33.90;32.80;;;;;;4696345;30;20392;-77